Van Buren, Washington
Current Conditions -  °F | °C
As of 8:00 PM on Saturday 25 Oct 2014 (Local Time) from CYXX Reporting Station
Heavy Rain Heavy Rain  
Wind Chill: 50°   Ceiling: 2000
Heat Index: 50°   Visibility: 4mi
Dew Point: 50°   Wind: 5mph
Humidity: 100%   Direction: 20°NNE
Pressure: 29.26"   Gusts: NA
Location:  48.9068°N, 122.295°W
Report Text: CYXX 260300Z 02004KT 4SM +RA SCT008 OVC020 10/10 A2926 RMK SF3NS5 /R16/ SLP910 DENSITY ALT 400FT
Loading
Personal Weather Stations






























Interactive Weather Map
Tropical Storm Tracking
New forecast layout! Learn more

10-Day Weather Forecast

Advertisements
Track Severe Weather on mobile